sensor_id;sensor_type;location;lat;lon;timestamp;P1;durP1;ratioP1;P2;durP2;ratioP2
70744;SDS011;59284;31.390;34.904;2023-06-19T00:01:15;15.43;;;8.87;;
70744;SDS011;59284;31.390;34.904;2023-06-19T00:03:40;19.90;;;9.10;;
70744;SDS011;59284;31.390;34.904;2023-06-19T00:06:06;15.70;;;9.63;;
70744;SDS011;59284;31.390;34.904;2023-06-19T00:08:32;17.95;;;8.50;;
70744;SDS011;59284;31.390;34.904;2023-06-19T00:10:57;18.80;;;9.40;;
70744;SDS011;59284;31.390;34.904;2023-06-19T00:13:23;22.85;;;9.07;;
70744;SDS011;59284;31.390;34.904;2023-06-19T00:15:49;18.93;;;9.63;;
70744;SDS011;59284;31.390;34.904;2023-06-19T00:18:14;16.03;;;9.23;;
70744;SDS011;59284;31.390;34.904;2023-06-19T00:20:42;19.52;;;9.73;;
70744;SDS011;59284;31.390;34.904;2023-06-19T00:23:11;20.17;;;9.70;;
70744;SDS011;59284;31.390;34.904;2023-06-19T00:25:39;20.17;;;9.23;;
70744;SDS011;59284;31.390;34.904;2023-06-19T00:28:05;19.95;;;10.20;;
70744;SDS011;59284;31.390;34.904;2023-06-19T00:30:36;17.03;;;8.87;;
70744;SDS011;59284;31.390;34.904;2023-06-19T00:33:02;16.67;;;9.93;;
70744;SDS011;59284;31.390;34.904;2023-06-19T00:35:28;15.10;;;8.63;;
70744;SDS011;59284;31.390;34.904;2023-06-19T00:37:54;17.50;;;9.87;;
70744;SDS011;59284;31.390;34.904;2023-06-19T00:40:21;24.23;;;11.07;;
70744;SDS011;59284;31.390;34.904;2023-06-19T00:42:51;20.73;;;9.30;;
70744;SDS011;59284;31.390;34.904;2023-06-19T00:45:17;19.88;;;10.40;;
70744;SDS011;59284;31.390;34.904;2023-06-19T00:47:42;20.93;;;9.93;;
70744;SDS011;59284;31.390;34.904;2023-06-19T00:50:09;16.88;;;7.97;;
70744;SDS011;59284;31.390;34.904;2023-06-19T00:52:35;17.05;;;9.75;;
70744;SDS011;59284;31.390;34.904;2023-06-19T00:55:00;13.67;;;9.17;;
70744;SDS011;59284;31.390;34.904;2023-06-19T00:57:27;16.42;;;9.70;;
70744;SDS011;59284;31.390;34.904;2023-06-19T00:59:53;15.10;;;8.38;;
70744;SDS011;59284;31.390;34.904;2023-06-19T01:02:19;21.30;;;9.10;;
70744;SDS011;59284;31.390;34.904;2023-06-19T01:04:49;22.40;;;10.10;;
70744;SDS011;59284;31.390;34.904;2023-06-19T01:07:18;19.33;;;8.07;;
70744;SDS011;59284;31.390;34.904;2023-06-19T01:09:53;15.82;;;9.23;;
70744;SDS011;59284;31.390;34.904;2023-06-19T01:12:24;17.92;;;9.90;;
70744;SDS011;59284;31.390;34.904;2023-06-19T01:14:59;16.23;;;8.85;;
70744;SDS011;59284;31.390;34.904;2023-06-19T01:17:28;17.93;;;10.57;;
70744;SDS011;59284;31.390;34.904;2023-06-19T01:19:55;22.15;;;10.55;;
70744;SDS011;59284;31.390;34.904;2023-06-19T01:22:23;19.65;;;10.73;;
70744;SDS011;59284;31.390;34.904;2023-06-19T01:24:52;22.77;;;10.57;;
70744;SDS011;59284;31.390;34.904;2023-06-19T01:27:18;20.20;;;10.07;;
70744;SDS011;59284;31.390;34.904;2023-06-19T01:29:44;21.10;;;9.93;;
70744;SDS011;59284;31.390;34.904;2023-06-19T01:32:10;19.33;;;9.48;;
70744;SDS011;59284;31.390;34.904;2023-06-19T01:34:44;17.37;;;9.03;;
70744;SDS011;59284;31.390;34.904;2023-06-19T01:37:11;19.95;;;10.10;;
70744;SDS011;59284;31.390;34.904;2023-06-19T01:39:38;20.38;;;10.77;;
70744;SDS011;59284;31.390;34.904;2023-06-19T01:42:05;20.42;;;10.65;;
70744;SDS011;59284;31.390;34.904;2023-06-19T01:44:34;20.73;;;10.73;;
70744;SDS011;59284;31.390;34.904;2023-06-19T01:47:07;21.30;;;10.07;;
70744;SDS011;59284;31.390;34.904;2023-06-19T01:49:36;20.73;;;10.98;;
70744;SDS011;59284;31.390;34.904;2023-06-19T01:52:03;20.35;;;10.77;;
70744;SDS011;59284;31.390;34.904;2023-06-19T01:54:30;23.17;;;10.32;;
70744;SDS011;59284;31.390;34.904;2023-06-19T01:56:57;22.38;;;9.90;;
70744;SDS011;59284;31.390;34.904;2023-06-19T01:59:24;22.30;;;9.60;;
70744;SDS011;59284;31.390;34.904;2023-06-19T02:01:50;25.55;;;10.77;;
70744;SDS011;59284;31.390;34.904;2023-06-19T02:04:17;23.17;;;10.70;;
70744;SDS011;59284;31.390;34.904;2023-06-19T02:06:44;17.65;;;9.82;;
70744;SDS011;59284;31.390;34.904;2023-06-19T02:09:11;19.55;;;11.30;;
70744;SDS011;59284;31.390;34.904;2023-06-19T02:11:38;21.50;;;10.00;;
70744;SDS011;59284;31.390;34.904;2023-06-19T02:14:04;22.17;;;11.35;;
70744;SDS011;59284;31.390;34.904;2023-06-19T02:16:30;21.65;;;11.82;;
70744;SDS011;59284;31.390;34.904;2023-06-19T02:18:56;25.40;;;12.65;;
70744;SDS011;59284;31.390;34.904;2023-06-19T02:21:23;25.95;;;12.45;;
70744;SDS011;59284;31.390;34.904;2023-06-19T02:23:50;22.27;;;11.67;;
70744;SDS011;59284;31.390;34.904;2023-06-19T02:26:17;21.98;;;11.43;;
70744;SDS011;59284;31.390;34.904;2023-06-19T02:28:43;21.70;;;11.15;;
70744;SDS011;59284;31.390;34.904;2023-06-19T02:31:10;18.75;;;10.55;;
70744;SDS011;59284;31.390;34.904;2023-06-19T02:33:36;21.73;;;11.38;;
70744;SDS011;59284;31.390;34.904;2023-06-19T02:36:03;21.33;;;11.83;;
70744;SDS011;59284;31.390;34.904;2023-06-19T02:38:29;22.38;;;11.05;;
70744;SDS011;59284;31.390;34.904;2023-06-19T02:40:55;23.85;;;11.93;;
70744;SDS011;59284;31.390;34.904;2023-06-19T02:43:22;27.40;;;12.05;;
70744;SDS011;59284;31.390;34.904;2023-06-19T02:45:48;25.07;;;11.97;;
70744;SDS011;59284;31.390;34.904;2023-06-19T02:48:14;18.17;;;11.40;;
70744;SDS011;59284;31.390;34.904;2023-06-19T02:50:39;16.10;;;9.47;;
70744;SDS011;59284;31.390;34.904;2023-06-19T02:53:05;16.77;;;9.77;;
70744;SDS011;59284;31.390;34.904;2023-06-19T02:55:31;16.60;;;9.03;;
70744;SDS011;59284;31.390;34.904;2023-06-19T02:57:56;22.20;;;10.88;;
70744;SDS011;59284;31.390;34.904;2023-06-19T03:00:22;22.27;;;10.03;;
70744;SDS011;59284;31.390;34.904;2023-06-19T03:02:48;19.20;;;9.68;;
70744;SDS011;59284;31.390;34.904;2023-06-19T03:05:16;21.03;;;10.33;;
70744;SDS011;59284;31.390;34.904;2023-06-19T03:07:41;17.27;;;10.40;;
70744;SDS011;59284;31.390;34.904;2023-06-19T03:10:07;23.60;;;10.20;;
70744;SDS011;59284;31.390;34.904;2023-06-19T03:12:33;21.35;;;9.75;;
70744;SDS011;59284;31.390;34.904;2023-06-19T03:14:58;23.57;;;10.07;;
70744;SDS011;59284;31.390;34.904;2023-06-19T03:17:24;23.23;;;11.32;;
70744;SDS011;59284;31.390;34.904;2023-06-19T03:19:49;21.63;;;12.93;;
70744;SDS011;59284;31.390;34.904;2023-06-19T03:22:15;29.87;;;14.63;;
70744;SDS011;59284;31.390;34.904;2023-06-19T03:24:40;31.30;;;14.43;;
70744;SDS011;59284;31.390;34.904;2023-06-19T03:27:06;25.30;;;13.93;;
70744;SDS011;59284;31.390;34.904;2023-06-19T03:29:32;25.83;;;12.88;;
70744;SDS011;59284;31.390;34.904;2023-06-19T03:31:57;25.40;;;13.53;;
70744;SDS011;59284;31.390;34.904;2023-06-19T03:34:23;28.48;;;14.60;;
70744;SDS011;59284;31.390;34.904;2023-06-19T03:36:49;25.50;;;14.52;;
70744;SDS011;59284;31.390;34.904;2023-06-19T03:39:14;20.43;;;11.67;;
70744;SDS011;59284;31.390;34.904;2023-06-19T03:41:40;14.88;;;9.32;;
70744;SDS011;59284;31.390;34.904;2023-06-19T03:44:06;24.13;;;11.83;;
70744;SDS011;59284;31.390;34.904;2023-06-19T03:46:32;28.02;;;12.88;;
70744;SDS011;59284;31.390;34.904;2023-06-19T03:48:57;22.40;;;10.23;;
70744;SDS011;59284;31.390;34.904;2023-06-19T03:51:23;22.05;;;10.88;;
70744;SDS011;59284;31.390;34.904;2023-06-19T03:53:48;30.37;;;11.93;;
70744;SDS011;59284;31.390;34.904;2023-06-19T03:56:15;22.45;;;10.05;;
70744;SDS011;59284;31.390;34.904;2023-06-19T03:58:40;20.90;;;11.30;;
70744;SDS011;59284;31.390;34.904;2023-06-19T04:01:06;18.55;;;11.48;;
70744;SDS011;59284;31.390;34.904;2023-06-19T04:03:33;17.75;;;8.75;;
70744;SDS011;59284;31.390;34.904;2023-06-19T04:05:59;20.50;;;8.43;;
70744;SDS011;59284;31.390;34.904;2023-06-19T04:08:25;21.23;;;9.40;;
70744;SDS011;59284;31.390;34.904;2023-06-19T04:10:51;22.98;;;10.73;;
70744;SDS011;59284;31.390;34.904;2023-06-19T04:13:17;20.02;;;10.25;;
70744;SDS011;59284;31.390;34.904;2023-06-19T04:15:51;14.83;;;8.23;;
70744;SDS011;59284;31.390;34.904;2023-06-19T04:18:18;17.80;;;9.63;;
70744;SDS011;59284;31.390;34.904;2023-06-19T04:20:49;22.45;;;10.50;;
70744;SDS011;59284;31.390;34.904;2023-06-19T04:23:20;15.35;;;8.55;;
70744;SDS011;59284;31.390;34.904;2023-06-19T04:26:09;16.77;;;7.50;;
70744;SDS011;59284;31.390;34.904;2023-06-19T04:29:00;17.67;;;7.77;;
70744;SDS011;59284;31.390;34.904;2023-06-19T04:31:45;25.07;;;9.33;;
70744;SDS011;59284;31.390;34.904;2023-06-19T04:34:38;20.25;;;10.02;;
70744;SDS011;59284;31.390;34.904;2023-06-19T04:37:17;15.63;;;7.43;;
70744;SDS011;59284;31.390;34.904;2023-06-19T04:40:06;22.95;;;10.63;;
70744;SDS011;59284;31.390;34.904;2023-06-19T04:42:53;18.48;;;8.23;;
70744;SDS011;59284;31.390;34.904;2023-06-19T04:45:43;19.03;;;9.03;;
70744;SDS011;59284;31.390;34.904;2023-06-19T04:48:30;18.30;;;8.05;;
70744;SDS011;59284;31.390;34.904;2023-06-19T04:51:21;9.93;;;6.53;;
70744;SDS011;59284;31.390;34.904;2023-06-19T04:54:13;18.10;;;6.40;;
70744;SDS011;59284;31.390;34.904;2023-06-19T04:57:04;17.13;;;7.35;;
70744;SDS011;59284;31.390;34.904;2023-06-19T04:59:53;16.10;;;7.20;;
70744;SDS011;59284;31.390;34.904;2023-06-19T05:02:44;16.08;;;7.03;;
70744;SDS011;59284;31.390;34.904;2023-06-19T05:05:38;12.43;;;7.28;;
70744;SDS011;59284;31.390;34.904;2023-06-19T05:08:29;12.90;;;5.32;;
70744;SDS011;59284;31.390;34.904;2023-06-19T05:11:19;10.25;;;5.00;;
70744;SDS011;59284;31.390;34.904;2023-06-19T05:14:09;8.17;;;4.40;;
70744;SDS011;59284;31.390;34.904;2023-06-19T05:17:00;10.70;;;3.83;;
70744;SDS011;59284;31.390;34.904;2023-06-19T05:19:50;15.80;;;4.63;;
70744;SDS011;59284;31.390;34.904;2023-06-19T05:22:41;10.00;;;5.78;;
70744;SDS011;59284;31.390;34.904;2023-06-19T05:25:31;11.95;;;5.97;;
70744;SDS011;59284;31.390;34.904;2023-06-19T05:28:22;7.67;;;4.10;;
70744;SDS011;59284;31.390;34.904;2023-06-19T05:31:12;12.43;;;4.00;;
70744;SDS011;59284;31.390;34.904;2023-06-19T05:33:41;7.13;;;3.63;;
70744;SDS011;59284;31.390;34.904;2023-06-19T05:36:07;9.45;;;3.63;;
70744;SDS011;59284;31.390;34.904;2023-06-19T05:38:33;10.80;;;3.40;;
70744;SDS011;59284;31.390;34.904;2023-06-19T05:40:59;8.75;;;3.75;;
70744;SDS011;59284;31.390;34.904;2023-06-19T05:43:25;7.20;;;2.85;;
70744;SDS011;59284;31.390;34.904;2023-06-19T05:45:51;8.88;;;3.00;;
70744;SDS011;59284;31.390;34.904;2023-06-19T05:48:18;6.60;;;2.50;;
70744;SDS011;59284;31.390;34.904;2023-06-19T05:50:43;6.57;;;2.50;;
70744;SDS011;59284;31.390;34.904;2023-06-19T05:53:09;5.73;;;1.97;;
70744;SDS011;59284;31.390;34.904;2023-06-19T05:55:35;5.88;;;2.40;;
70744;SDS011;59284;31.390;34.904;2023-06-19T05:58:02;7.13;;;2.37;;
70744;SDS011;59284;31.390;34.904;2023-06-19T06:00:29;5.93;;;2.40;;
70744;SDS011;59284;31.390;34.904;2023-06-19T06:02:56;4.60;;;1.95;;
70744;SDS011;59284;31.390;34.904;2023-06-19T06:05:24;8.40;;;2.40;;
70744;SDS011;59284;31.390;34.904;2023-06-19T06:07:53;5.63;;;2.35;;
70744;SDS011;59284;31.390;34.904;2023-06-19T06:10:23;8.83;;;3.00;;
70744;SDS011;59284;31.390;34.904;2023-06-19T06:12:50;7.18;;;2.88;;
70744;SDS011;59284;31.390;34.904;2023-06-19T06:15:16;6.32;;;2.78;;
70744;SDS011;59284;31.390;34.904;2023-06-19T06:17:41;5.80;;;2.13;;
70744;SDS011;59284;31.390;34.904;2023-06-19T06:20:07;6.45;;;2.92;;
70744;SDS011;59284;31.390;34.904;2023-06-19T06:22:40;6.05;;;2.15;;
70744;SDS011;59284;31.390;34.904;2023-06-19T06:25:07;4.53;;;2.00;;
70744;SDS011;59284;31.390;34.904;2023-06-19T06:27:35;5.25;;;2.20;;
70744;SDS011;59284;31.390;34.904;2023-06-19T06:30:01;5.57;;;2.40;;
70744;SDS011;59284;31.390;34.904;2023-06-19T06:32:26;4.50;;;2.13;;
70744;SDS011;59284;31.390;34.904;2023-06-19T06:34:54;6.20;;;2.30;;
70744;SDS011;59284;31.390;34.904;2023-06-19T06:37:20;7.90;;;2.38;;
70744;SDS011;59284;31.390;34.904;2023-06-19T06:39:48;12.57;;;3.30;;
70744;SDS011;59284;31.390;34.904;2023-06-19T06:42:17;6.60;;;2.30;;
70744;SDS011;59284;31.390;34.904;2023-06-19T06:44:43;8.23;;;3.37;;
70744;SDS011;59284;31.390;34.904;2023-06-19T06:47:09;8.90;;;3.40;;
70744;SDS011;59284;31.390;34.904;2023-06-19T06:49:34;5.45;;;2.55;;
70744;SDS011;59284;31.390;34.904;2023-06-19T06:52:04;7.40;;;3.10;;
70744;SDS011;59284;31.390;34.904;2023-06-19T06:54:30;8.30;;;2.90;;
70744;SDS011;59284;31.390;34.904;2023-06-19T06:56:56;11.57;;;2.50;;
70744;SDS011;59284;31.390;34.904;2023-06-19T06:59:23;5.50;;;2.17;;
70744;SDS011;59284;31.390;34.904;2023-06-19T07:01:50;8.88;;;2.55;;
70744;SDS011;59284;31.390;34.904;2023-06-19T07:04:15;10.65;;;3.45;;
70744;SDS011;59284;31.390;34.904;2023-06-19T07:06:41;7.60;;;3.10;;
70744;SDS011;59284;31.390;34.904;2023-06-19T07:09:07;11.13;;;3.20;;
70744;SDS011;59284;31.390;34.904;2023-06-19T07:11:32;6.63;;;2.30;;
70744;SDS011;59284;31.390;34.904;2023-06-19T07:13:58;4.07;;;2.28;;
70744;SDS011;59284;31.390;34.904;2023-06-19T07:16:24;8.53;;;2.77;;
70744;SDS011;59284;31.390;34.904;2023-06-19T07:18:49;7.30;;;2.20;;
70744;SDS011;59284;31.390;34.904;2023-06-19T07:21:15;6.88;;;2.60;;
70744;SDS011;59284;31.390;34.904;2023-06-19T07:23:41;9.93;;;3.20;;
70744;SDS011;59284;31.390;34.904;2023-06-19T07:26:09;9.15;;;3.28;;
70744;SDS011;59284;31.390;34.904;2023-06-19T07:28:34;6.00;;;3.05;;
70744;SDS011;59284;31.390;34.904;2023-06-19T07:31:01;5.57;;;2.70;;
70744;SDS011;59284;31.390;34.904;2023-06-19T07:33:28;10.05;;;2.92;;
70744;SDS011;59284;31.390;34.904;2023-06-19T07:35:54;11.27;;;3.30;;
70744;SDS011;59284;31.390;34.904;2023-06-19T07:38:20;7.20;;;2.30;;
70744;SDS011;59284;31.390;34.904;2023-06-19T07:40:46;7.28;;;2.90;;
70744;SDS011;59284;31.390;34.904;2023-06-19T07:43:12;10.03;;;2.63;;
70744;SDS011;59284;31.390;34.904;2023-06-19T07:45:37;5.77;;;2.40;;
70744;SDS011;59284;31.390;34.904;2023-06-19T07:48:03;9.10;;;2.20;;
70744;SDS011;59284;31.390;34.904;2023-06-19T07:50:29;8.77;;;2.50;;
70744;SDS011;59284;31.390;34.904;2023-06-19T07:52:55;7.07;;;2.57;;
70744;SDS011;59284;31.390;34.904;2023-06-19T07:55:20;5.82;;;2.40;;
70744;SDS011;59284;31.390;34.904;2023-06-19T07:57:46;4.60;;;1.83;;
70744;SDS011;59284;31.390;34.904;2023-06-19T08:00:12;5.18;;;1.75;;
70744;SDS011;59284;31.390;34.904;2023-06-19T08:02:41;6.10;;;1.93;;
70744;SDS011;59284;31.390;34.904;2023-06-19T08:05:07;6.85;;;2.50;;
70744;SDS011;59284;31.390;34.904;2023-06-19T08:07:34;5.57;;;2.10;;
70744;SDS011;59284;31.390;34.904;2023-06-19T08:10:00;5.82;;;2.30;;
70744;SDS011;59284;31.390;34.904;2023-06-19T08:12:25;4.50;;;2.07;;
70744;SDS011;59284;31.390;34.904;2023-06-19T08:14:51;4.28;;;1.88;;
70744;SDS011;59284;31.390;34.904;2023-06-19T08:17:16;7.17;;;2.43;;
70744;SDS011;59284;31.390;34.904;2023-06-19T08:19:42;7.32;;;2.70;;
70744;SDS011;59284;31.390;34.904;2023-06-19T08:22:08;5.77;;;1.90;;
70744;SDS011;59284;31.390;34.904;2023-06-19T08:24:34;7.75;;;1.88;;
70744;SDS011;59284;31.390;34.904;2023-06-19T08:27:05;5.77;;;1.73;;
70744;SDS011;59284;31.390;34.904;2023-06-19T08:29:30;8.07;;;2.38;;
70744;SDS011;59284;31.390;34.904;2023-06-19T08:31:56;7.67;;;2.17;;
70744;SDS011;59284;31.390;34.904;2023-06-19T08:34:21;6.07;;;2.08;;
70744;SDS011;59284;31.390;34.904;2023-06-19T08:36:47;7.03;;;2.63;;
70744;SDS011;59284;31.390;34.904;2023-06-19T08:39:13;9.10;;;2.40;;
70744;SDS011;59284;31.390;34.904;2023-06-19T08:41:39;8.97;;;2.60;;
70744;SDS011;59284;31.390;34.904;2023-06-19T08:44:06;7.75;;;2.90;;
70744;SDS011;59284;31.390;34.904;2023-06-19T08:46:35;8.88;;;2.80;;
70744;SDS011;59284;31.390;34.904;2023-06-19T08:49:03;8.57;;;3.38;;
70744;SDS011;59284;31.390;34.904;2023-06-19T08:51:31;6.05;;;2.63;;
70744;SDS011;59284;31.390;34.904;2023-06-19T08:54:06;7.13;;;2.50;;
70744;SDS011;59284;31.390;34.904;2023-06-19T08:56:35;8.95;;;2.47;;
70744;SDS011;59284;31.390;34.904;2023-06-19T08:59:35;6.63;;;2.63;;
70744;SDS011;59284;31.390;34.904;2023-06-19T09:01:56;6.97;;;2.78;;
70744;SDS011;59284;31.390;34.904;2023-06-19T09:04:23;8.33;;;2.57;;
70744;SDS011;59284;31.390;34.904;2023-06-19T09:06:52;7.97;;;2.63;;
70744;SDS011;59284;31.390;34.904;2023-06-19T09:09:19;9.55;;;3.15;;
70744;SDS011;59284;31.390;34.904;2023-06-19T09:12:02;4.43;;;2.03;;
70744;SDS011;59284;31.390;34.904;2023-06-19T09:17:05;6.25;;;1.90;;
70744;SDS011;59284;31.390;34.904;2023-06-19T09:19:32;7.85;;;2.35;;
70744;SDS011;59284;31.390;34.904;2023-06-19T09:22:03;5.65;;;1.90;;
70744;SDS011;59284;31.390;34.904;2023-06-19T09:24:34;7.93;;;2.42;;
70744;SDS011;59284;31.390;34.904;2023-06-19T09:27:14;8.13;;;2.10;;
70744;SDS011;59284;31.390;34.904;2023-06-19T09:29:43;6.90;;;2.75;;
70744;SDS011;59284;31.390;34.904;2023-06-19T09:32:13;7.47;;;1.95;;
70744;SDS011;59284;31.390;34.904;2023-06-19T09:34:49;5.47;;;1.80;;
70744;SDS011;59284;31.390;34.904;2023-06-19T09:37:26;7.85;;;2.63;;
70744;SDS011;59284;31.390;34.904;2023-06-19T09:39:56;8.57;;;2.90;;
70744;SDS011;59284;31.390;34.904;2023-06-19T09:42:32;11.13;;;3.30;;
70744;SDS011;59284;31.390;34.904;2023-06-19T09:44:59;7.68;;;2.55;;
70744;SDS011;59284;31.390;34.904;2023-06-19T09:47:29;7.00;;;1.90;;
70744;SDS011;59284;31.390;34.904;2023-06-19T09:49:57;6.28;;;2.25;;
70744;SDS011;59284;31.390;34.904;2023-06-19T09:52:22;8.10;;;3.10;;
70744;SDS011;59284;31.390;34.904;2023-06-19T09:54:52;6.72;;;2.53;;
70744;SDS011;59284;31.390;34.904;2023-06-19T09:57:19;6.65;;;3.00;;
70744;SDS011;59284;31.390;34.904;2023-06-19T09:59:49;9.90;;;3.13;;
70744;SDS011;59284;31.390;34.904;2023-06-19T10:02:17;13.47;;;3.73;;
70744;SDS011;59284;31.390;34.904;2023-06-19T10:04:55;7.50;;;2.60;;
70744;SDS011;59284;31.390;34.904;2023-06-19T10:07:22;9.20;;;2.92;;
70744;SDS011;59284;31.390;34.904;2023-06-19T10:10:04;9.80;;;3.53;;
70744;SDS011;59284;31.390;34.904;2023-06-19T10:12:45;12.23;;;3.00;;
70744;SDS011;59284;31.390;34.904;2023-06-19T10:15:21;8.57;;;3.07;;
70744;SDS011;59284;31.390;34.904;2023-06-19T10:17:49;8.80;;;2.60;;
70744;SDS011;59284;31.390;34.904;2023-06-19T10:20:34;6.70;;;2.70;;
70744;SDS011;59284;31.390;34.904;2023-06-19T10:23:19;8.10;;;2.85;;
70744;SDS011;59284;31.390;34.904;2023-06-19T10:25:57;6.65;;;3.10;;
70744;SDS011;59284;31.390;34.904;2023-06-19T10:28:25;11.00;;;3.03;;
70744;SDS011;59284;31.390;34.904;2023-06-19T10:30:56;4.47;;;2.17;;
70744;SDS011;59284;31.390;34.904;2023-06-19T10:33:27;8.63;;;2.53;;
70744;SDS011;59284;31.390;34.904;2023-06-19T10:35:54;7.13;;;2.53;;
70744;SDS011;59284;31.390;34.904;2023-06-19T10:38:20;7.63;;;2.83;;
70744;SDS011;59284;31.390;34.904;2023-06-19T10:40:46;7.78;;;3.00;;
70744;SDS011;59284;31.390;34.904;2023-06-19T10:43:12;12.60;;;2.63;;
70744;SDS011;59284;31.390;34.904;2023-06-19T10:45:44;9.20;;;3.10;;
70744;SDS011;59284;31.390;34.904;2023-06-19T10:48:10;4.07;;;2.20;;
70744;SDS011;59284;31.390;34.904;2023-06-19T10:50:41;9.45;;;2.70;;
70744;SDS011;59284;31.390;34.904;2023-06-19T10:53:07;8.90;;;2.97;;
70744;SDS011;59284;31.390;34.904;2023-06-19T10:55:33;5.88;;;2.15;;
70744;SDS011;59284;31.390;34.904;2023-06-19T10:57:59;5.25;;;2.45;;
70744;SDS011;59284;31.390;34.904;2023-06-19T11:02:51;4.53;;;1.88;;
70744;SDS011;59284;31.390;34.904;2023-06-19T11:05:19;6.57;;;2.08;;
70744;SDS011;59284;31.390;34.904;2023-06-19T11:07:50;7.17;;;2.33;;
70744;SDS011;59284;31.390;34.904;2023-06-19T11:10:20;6.70;;;2.20;;
70744;SDS011;59284;31.390;34.904;2023-06-19T11:12:47;5.63;;;2.00;;
70744;SDS011;59284;31.390;34.904;2023-06-19T11:15:13;3.90;;;1.98;;
70744;SDS011;59284;31.390;34.904;2023-06-19T11:17:39;4.67;;;2.00;;
70744;SDS011;59284;31.390;34.904;2023-06-19T11:20:09;5.80;;;2.00;;
70744;SDS011;59284;31.390;34.904;2023-06-19T11:22:39;7.68;;;2.30;;
70744;SDS011;59284;31.390;34.904;2023-06-19T11:25:06;5.97;;;2.57;;
70744;SDS011;59284;31.390;34.904;2023-06-19T11:27:32;5.15;;;2.50;;
70744;SDS011;59284;31.390;34.904;2023-06-19T11:29:58;5.93;;;1.90;;
70744;SDS011;59284;31.390;34.904;2023-06-19T11:32:30;2.95;;;1.70;;
70744;SDS011;59284;31.390;34.904;2023-06-19T11:34:56;5.70;;;1.70;;
70744;SDS011;59284;31.390;34.904;2023-06-19T11:37:22;8.73;;;2.00;;
70744;SDS011;59284;31.390;34.904;2023-06-19T11:39:48;7.18;;;1.83;;
70744;SDS011;59284;31.390;34.904;2023-06-19T11:42:16;4.18;;;2.00;;
70744;SDS011;59284;31.390;34.904;2023-06-19T11:44:59;8.00;;;2.43;;
70744;SDS011;59284;31.390;34.904;2023-06-19T11:47:31;3.75;;;1.80;;
70744;SDS011;59284;31.390;34.904;2023-06-19T11:49:57;7.65;;;2.38;;
70744;SDS011;59284;31.390;34.904;2023-06-19T11:52:23;5.10;;;2.30;;
70744;SDS011;59284;31.390;34.904;2023-06-19T11:54:49;8.80;;;2.30;;
70744;SDS011;59284;31.390;34.904;2023-06-19T11:57:14;3.58;;;1.85;;
70744;SDS011;59284;31.390;34.904;2023-06-19T11:59:40;5.40;;;1.87;;
70744;SDS011;59284;31.390;34.904;2023-06-19T12:02:07;7.55;;;2.53;;
70744;SDS011;59284;31.390;34.904;2023-06-19T12:04:33;5.13;;;2.58;;
70744;SDS011;59284;31.390;34.904;2023-06-19T12:06:59;5.03;;;2.10;;
70744;SDS011;59284;31.390;34.904;2023-06-19T12:09:25;8.35;;;2.53;;
70744;SDS011;59284;31.390;34.904;2023-06-19T12:11:50;6.13;;;1.90;;
70744;SDS011;59284;31.390;34.904;2023-06-19T12:14:16;6.97;;;2.47;;
70744;SDS011;59284;31.390;34.904;2023-06-19T12:16:43;7.80;;;2.65;;
70744;SDS011;59284;31.390;34.904;2023-06-19T12:19:10;7.35;;;2.80;;
70744;SDS011;59284;31.390;34.904;2023-06-19T12:21:38;5.67;;;2.60;;
70744;SDS011;59284;31.390;34.904;2023-06-19T12:24:05;7.18;;;2.60;;
70744;SDS011;59284;31.390;34.904;2023-06-19T12:26:32;4.32;;;1.90;;
70744;SDS011;59284;31.390;34.904;2023-06-19T12:29:05;6.32;;;1.98;;
70744;SDS011;59284;31.390;34.904;2023-06-19T12:31:35;5.43;;;1.77;;
70744;SDS011;59284;31.390;34.904;2023-06-19T12:34:01;9.47;;;2.10;;
70744;SDS011;59284;31.390;34.904;2023-06-19T12:36:31;7.72;;;2.00;;
70744;SDS011;59284;31.390;34.904;2023-06-19T12:38:58;10.00;;;2.72;;
70744;SDS011;59284;31.390;34.904;2023-06-19T12:41:24;7.35;;;2.45;;
70744;SDS011;59284;31.390;34.904;2023-06-19T12:43:50;6.13;;;2.47;;
70744;SDS011;59284;31.390;34.904;2023-06-19T12:46:15;5.45;;;2.20;;
70744;SDS011;59284;31.390;34.904;2023-06-19T12:48:41;7.65;;;1.90;;
70744;SDS011;59284;31.390;34.904;2023-06-19T12:51:07;3.77;;;1.60;;
70744;SDS011;59284;31.390;34.904;2023-06-19T12:53:33;4.85;;;1.83;;
70744;SDS011;59284;31.390;34.904;2023-06-19T12:55:59;4.77;;;1.90;;
70744;SDS011;59284;31.390;34.904;2023-06-19T12:58:25;6.70;;;2.10;;
70744;SDS011;59284;31.390;34.904;2023-06-19T13:00:52;4.47;;;1.80;;
70744;SDS011;59284;31.390;34.904;2023-06-19T13:03:18;7.25;;;2.38;;
70744;SDS011;59284;31.390;34.904;2023-06-19T13:05:45;5.97;;;1.80;;
70744;SDS011;59284;31.390;34.904;2023-06-19T13:08:11;5.88;;;1.60;;
70744;SDS011;59284;31.390;34.904;2023-06-19T13:10:37;6.63;;;2.20;;
70744;SDS011;59284;31.390;34.904;2023-06-19T13:13:04;6.78;;;2.25;;
70744;SDS011;59284;31.390;34.904;2023-06-19T13:15:31;8.65;;;2.45;;
70744;SDS011;59284;31.390;34.904;2023-06-19T13:17:59;5.88;;;2.08;;
70744;SDS011;59284;31.390;34.904;2023-06-19T13:20:25;5.28;;;1.85;;
70744;SDS011;59284;31.390;34.904;2023-06-19T13:22:50;4.33;;;1.60;;
70744;SDS011;59284;31.390;34.904;2023-06-19T13:25:17;6.00;;;2.00;;
70744;SDS011;59284;31.390;34.904;2023-06-19T13:27:43;7.43;;;1.63;;
70744;SDS011;59284;31.390;34.904;2023-06-19T13:30:09;6.27;;;2.00;;
70744;SDS011;59284;31.390;34.904;2023-06-19T13:32:35;5.30;;;1.90;;
70744;SDS011;59284;31.390;34.904;2023-06-19T13:35:01;7.30;;;2.33;;
70744;SDS011;59284;31.390;34.904;2023-06-19T13:37:27;5.20;;;1.80;;
70744;SDS011;59284;31.390;34.904;2023-06-19T13:39:53;5.57;;;2.25;;
70744;SDS011;59284;31.390;34.904;2023-06-19T13:42:19;8.65;;;1.77;;
70744;SDS011;59284;31.390;34.904;2023-06-19T13:44:48;7.15;;;2.65;;
70744;SDS011;59284;31.390;34.904;2023-06-19T13:47:15;5.25;;;1.73;;
70744;SDS011;59284;31.390;34.904;2023-06-19T13:49:41;6.83;;;2.70;;
70744;SDS011;59284;31.390;34.904;2023-06-19T13:52:08;6.47;;;2.00;;
70744;SDS011;59284;31.390;34.904;2023-06-19T13:54:36;5.10;;;2.17;;
70744;SDS011;59284;31.390;34.904;2023-06-19T13:57:05;4.65;;;1.98;;
70744;SDS011;59284;31.390;34.904;2023-06-19T13:59:33;4.10;;;1.85;;
70744;SDS011;59284;31.390;34.904;2023-06-19T14:02:00;7.07;;;2.10;;
70744;SDS011;59284;31.390;34.904;2023-06-19T14:04:53;5.88;;;1.80;;
70744;SDS011;59284;31.390;34.904;2023-06-19T14:07:45;6.50;;;2.35;;
70744;SDS011;59284;31.390;34.904;2023-06-19T14:10:37;5.55;;;1.80;;
70744;SDS011;59284;31.390;34.904;2023-06-19T14:13:29;6.75;;;2.60;;
70744;SDS011;59284;31.390;34.904;2023-06-19T14:16:20;7.80;;;2.03;;
70744;SDS011;59284;31.390;34.904;2023-06-19T14:19:12;6.55;;;2.33;;
70744;SDS011;59284;31.390;34.904;2023-06-19T14:22:05;5.85;;;1.95;;
70744;SDS011;59284;31.390;34.904;2023-06-19T14:24:57;9.20;;;2.33;;
70744;SDS011;59284;31.390;34.904;2023-06-19T14:27:50;5.70;;;2.22;;
70744;SDS011;59284;31.390;34.904;2023-06-19T14:30:42;4.63;;;1.93;;
70744;SDS011;59284;31.390;34.904;2023-06-19T14:33:36;3.38;;;1.73;;
70744;SDS011;59284;31.390;34.904;2023-06-19T14:36:27;6.97;;;2.67;;
70744;SDS011;59284;31.390;34.904;2023-06-19T14:39:20;4.22;;;1.92;;
70744;SDS011;59284;31.390;34.904;2023-06-19T14:42:13;3.33;;;1.55;;
70744;SDS011;59284;31.390;34.904;2023-06-19T14:45:05;5.43;;;2.13;;
70744;SDS011;59284;31.390;34.904;2023-06-19T14:47:56;5.75;;;2.08;;